Time;durP1;ratioP1;P1;durP2;ratioP2;P2;SDS_P1;SDS_P2;PMS_P1;PMS_P2;Temp;Humidity;BMP_temperature;BMP_pressure;BME280_temperature;BME280_humidity;BME280_pressure;Samples;Min_cycle;Max_cycle;Signal;HPM_P1;HPM_P2
2022/11/18 00:01:19;;;;;;;0.40;0.40;;;16.90;61.00;;;16.67;45.62;93328.34;4998985;28;20199;-74
2022/11/18 00:03:46;;;;;;;0.52;0.52;;;16.90;61.00;;;16.71;45.67;93333.91;4998527;28;20205;-73
2022/11/18 00:06:18;;;;;;;0.55;0.55;;;16.90;61.00;;;16.70;45.32;93334.94;5016064;28;20185;-74
2022/11/18 00:08:45;;;;;;;0.45;0.45;;;16.90;61.00;;;16.66;45.60;93329.41;5014957;28;20535;-73
2022/11/18 00:14:17;;;;;;;0.40;0.40;;;16.90;61.10;;;16.68;45.51;93327.28;5028934;28;20670;-73
2022/11/18 00:17:06;;;;;;;0.40;0.40;;;16.90;61.00;;;16.68;45.45;93329.16;5015904;28;20184;-73
2022/11/18 00:19:36;;;;;;;0.40;0.40;;;16.90;61.00;;;16.68;45.36;93329.16;5031289;28;20197;-73
2022/11/18 00:22:06;;;;;;;0.40;0.40;;;16.90;61.00;;;16.69;45.95;93333.38;5015795;28;20177;-73
2022/11/18 00:24:33;;;;;;;0.50;0.50;;;16.90;61.00;;;16.69;45.43;93339.47;4997658;28;20196;-74
2022/11/18 00:27:01;;;;;;;0.40;0.40;;;16.90;61.00;;;16.71;45.57;93334.72;5014666;28;20197;-74
2022/11/18 00:29:29;;;;;;;0.50;0.50;;;16.90;61.00;;;16.68;45.98;93322.00;5014492;28;20201;-74
2022/11/18 00:31:57;;;;;;;0.40;0.40;;;16.90;61.00;;;16.68;46.12;93314.06;5015562;28;20189;-74
2022/11/18 00:34:24;;;;;;;0.60;0.60;;;16.90;61.10;;;16.66;45.76;93310.88;5030849;28;20196;-73
2022/11/18 00:36:52;;;;;;;0.50;0.50;;;16.90;61.00;;;16.71;45.29;93324.13;5030720;28;20197;-73
2022/11/18 00:39:19;;;;;;;0.43;0.43;;;16.90;61.10;;;16.70;45.44;93324.38;4998052;28;20200;-73
2022/11/18 00:44:35;;;;;;;0.45;0.45;;;16.90;61.00;;;16.69;45.96;93330.75;5031122;28;20185;-73
2022/11/18 00:47:03;;;;;;;0.40;0.40;;;16.90;61.00;;;16.69;46.00;93330.75;5030561;28;20280;-73
2022/11/18 00:49:30;;;;;;;0.50;0.50;;;16.90;61.00;;;16.68;45.93;93322.00;5015308;28;20188;-74
2022/11/18 00:51:57;;;;;;;0.50;0.50;;;16.90;61.00;;;16.69;45.59;93318.28;5014533;28;20196;-74
2022/11/18 00:54:24;;;;;;;0.60;0.60;;;16.90;61.00;;;16.70;45.76;93319.06;5030649;28;20189;-74
2022/11/18 00:56:51;;;;;;;0.50;0.50;;;16.90;61.00;;;16.71;45.64;93316.19;5030471;28;20197;-74
2022/11/18 00:59:18;;;;;;;0.50;0.50;;;16.90;61.00;;;16.69;45.71;93310.34;5013979;28;20308;-74
2022/11/18 01:01:47;;;;;;;0.40;0.40;;;16.90;61.00;;;16.71;45.64;93318.81;5030533;28;20204;-73
2022/11/18 01:04:16;;;;;;;0.50;0.50;;;16.90;61.00;;;16.73;45.72;93319.31;5014206;28;20299;-74
2022/11/18 01:06:43;;;;;;;0.50;0.50;;;16.90;61.00;;;16.70;45.87;93319.06;5030519;28;20193;-74
2022/11/18 01:09:10;;;;;;;0.40;0.40;;;16.90;61.00;;;16.71;45.72;93321.47;5014606;28;20193;-74
2022/11/18 01:14:25;;;;;;;0.50;0.50;;;16.90;61.00;;;16.72;45.52;93309.00;5033998;28;20186;-74
2022/11/18 01:16:55;;;;;;;0.45;0.45;;;16.90;61.00;;;16.71;45.57;93307.41;5033849;28;20211;-73
2022/11/18 01:19:24;;;;;;;0.40;0.40;;;16.90;61.00;;;16.72;45.68;93295.78;5017200;28;20646;-74
2022/11/18 01:21:51;;;;;;;0.40;0.40;;;16.90;61.00;;;16.72;45.47;93295.78;5033845;28;20624;-74
2022/11/18 01:24:18;;;;;;;0.50;0.50;;;16.90;61.00;;;16.73;45.68;93286.78;5033761;28;20198;-74
2022/11/18 01:26:45;;;;;;;0.50;0.50;;;16.90;61.00;;;16.72;45.43;93291.28;5017550;28;20195;-75
2022/11/18 01:29:12;;;;;;;0.50;0.50;;;16.90;61.00;;;16.73;45.56;93276.19;5017092;28;20211;-75
2022/11/18 01:31:40;;;;;;;0.40;0.40;;;16.90;61.00;;;16.73;45.45;93290.19;5033784;28;20623;-74
2022/11/18 01:34:28;;;;;;;0.50;0.50;;;16.90;61.00;;;16.73;45.56;93284.91;5034926;28;20650;-74
2022/11/18 01:36:57;;;;;;;0.50;0.50;;;16.90;61.00;;;16.74;45.35;93280.41;5037707;28;20196;-74
2022/11/18 01:39:25;;;;;;;0.40;0.40;;;16.90;61.00;;;16.73;45.66;93273.53;5037765;28;20311;-73
2022/11/18 01:41:52;;;;;;;0.40;0.40;;;16.90;61.00;;;16.74;45.78;93254.72;5037529;28;20528;-74
2022/11/18 01:45:27;;;;;;;0.50;0.50;;;16.90;61.00;;;16.70;45.55;93239.66;5021114;28;20207;-74
2022/11/18 01:48:16;;;;;;;0.50;0.50;;;16.90;61.00;;;16.68;45.79;93237.28;5028700;28;20215;-74
2022/11/18 01:50:48;;;;;;;0.50;0.50;;;16.90;61.00;;;16.61;45.57;93208.47;5037771;28;20505;-74
2022/11/18 01:53:26;;;;;;;0.40;0.40;;;16.90;61.00;;;16.69;45.73;93219.56;5037152;28;20211;-74
2022/11/18 01:55:57;;;;;;;0.50;0.50;;;16.90;61.00;;;16.69;45.90;93224.84;5053728;28;20180;-74
2022/11/18 01:58:37;;;;;;;0.40;0.40;;;16.90;61.00;;;16.65;45.75;93208.72;5020393;28;20236;-74
2022/11/18 02:01:06;;;;;;;0.40;0.40;;;16.90;61.00;;;16.70;45.73;93200.75;5037356;28;20230;-74
2022/11/18 02:03:34;;;;;;;0.50;0.50;;;16.90;61.00;;;16.71;45.49;93194.41;5037089;28;20199;-74
2022/11/18 02:06:04;;;;;;;0.40;0.40;;;16.90;61.00;;;16.70;45.47;93189.34;5053482;28;20196;-74
2022/11/18 02:08:36;;;;;;;0.40;0.40;;;16.90;61.00;;;16.63;45.62;93179.06;5020457;28;20324;-74
2022/11/18 02:11:04;;;;;;;0.40;0.40;;;16.90;61.00;;;16.69;45.91;93191.22;5036964;28;20512;-74
2022/11/18 02:13:31;;;;;;;0.40;0.40;;;16.90;61.00;;;16.70;45.59;93198.09;5020562;28;20650;-74
2022/11/18 02:16:14;;;;;;;0.50;0.50;;;16.90;61.00;;;16.68;45.40;93189.63;5036746;28;20200;-74
2022/11/18 02:18:54;;;;;;;0.40;0.40;;;16.90;61.00;;;16.71;45.82;93199.69;5036763;28;20212;-74
2022/11/18 02:21:57;;;;;;;0.50;0.50;;;16.90;61.00;;;16.71;45.72;93204.97;5053065;28;20179;-74
2022/11/18 02:24:51;;;;;;;0.50;0.50;;;16.90;61.00;;;16.69;46.03;93208.97;5036714;28;20239;-74
2022/11/18 02:27:59;;;;;;;0.40;0.40;;;16.90;61.00;;;16.67;45.62;93219.03;5037023;28;20211;-74
2022/11/18 02:30:31;;;;;;;0.40;0.40;;;16.90;61.00;;;16.68;45.46;93213.47;5037525;28;20492;-74
2022/11/18 02:33:06;;;;;;;0.40;0.40;;;16.90;61.00;;;16.68;45.63;93221.41;5036618;28;20205;-74
2022/11/18 02:35:46;;;;;;;0.40;0.40;;;16.90;61.00;;;16.68;45.85;93223.28;5037707;28;20171;-74
2022/11/18 02:38:26;;;;;;;0.40;0.40;;;16.90;61.00;;;16.69;45.95;93222.22;5036556;28;20172;-74
2022/11/18 02:41:02;;;;;;;0.50;0.50;;;16.90;61.00;;;16.70;45.75;93223.78;5036260;28;20172;-74
2022/11/18 02:43:55;;;;;;;0.50;0.50;;;16.90;61.00;;;16.69;45.49;93227.50;5052973;28;20310;-74
2022/11/18 02:46:32;;;;;;;0.50;0.50;;;16.90;61.00;;;16.68;45.86;93218.75;5035856;28;20188;-74
2022/11/18 02:49:04;;;;;;;0.40;0.40;;;16.90;61.00;;;16.70;45.44;93221.13;5036288;28;20261;-74
2022/11/18 02:51:32;;;;;;;0.40;0.40;;;16.90;61.10;;;16.66;45.85;93210.28;5036275;28;20194;-73
2022/11/18 02:54:05;;;;;;;0.40;0.40;;;16.90;61.00;;;16.70;45.71;93226.41;5035843;28;20216;-74
2022/11/18 02:56:34;;;;;;;0.40;0.40;;;16.90;61.00;;;16.70;45.94;93227.22;5036181;28;20177;-73
2022/11/18 02:59:02;;;;;;;0.40;0.40;;;16.90;61.00;;;16.70;45.52;93226.41;5019534;28;20262;-74
2022/11/18 03:01:33;;;;;;;0.40;0.40;;;16.90;61.00;;;16.71;45.74;93236.75;5035966;28;20203;-74
2022/11/18 03:04:01;;;;;;;0.50;0.50;;;16.90;61.00;;;16.73;45.57;93236.47;5036171;28;20184;-74
2022/11/18 03:06:39;;;;;;;0.40;0.40;;;16.90;61.00;;;16.73;45.99;93233.81;5035918;28;20204;-74
2022/11/18 03:09:22;;;;;;;0.43;0.43;;;16.90;61.00;;;16.72;45.71;93222.47;5019533;28;20279;-74
2022/11/18 03:12:16;;;;;;;0.40;0.40;;;16.90;61.00;;;16.73;45.97;93216.06;5036683;28;20192;-74
2022/11/18 03:15:33;;;;;;;0.50;0.50;;;16.90;61.00;;;16.66;46.17;93207.63;5035655;28;20262;-74
2022/11/18 03:18:41;;;;;;;0.43;0.43;;;16.90;61.00;;;16.70;45.98;93213.19;5042549;28;20290;-74
2022/11/18 03:21:22;;;;;;;0.40;0.40;;;16.90;61.00;;;16.70;45.92;93213.19;5019112;28;20204;-74
2022/11/18 03:24:12;;;;;;;0.60;0.60;;;17.00;61.10;;;16.69;45.85;93201.03;5035540;28;20177;-74
2022/11/18 03:26:49;;;;;;;0.40;0.40;;;16.90;61.00;;;16.73;46.05;93196.75;5035474;28;20180;-74
2022/11/18 03:29:32;;;;;;;0.40;0.40;;;16.90;61.00;;;16.73;45.68;93194.13;5035525;28;20234;-74
2022/11/18 03:32:10;;;;;;;0.40;0.40;;;16.90;61.00;;;16.72;45.59;93192.53;5018999;28;20220;-74
2022/11/18 03:34:44;;;;;;;0.30;0.30;;;16.90;61.00;;;16.72;45.79;93195.19;5019362;28;20203;-74
2022/11/18 03:37:14;;;;;;;0.40;0.40;;;16.90;61.00;;;16.74;45.71;93203.66;5035451;28;20219;-74
2022/11/18 03:39:49;;;;;;;0.40;0.40;;;16.90;61.00;;;16.73;45.82;93205.47;5018689;28;20199;-74
2022/11/18 03:42:44;;;;;;;0.50;0.50;;;16.90;61.00;;;16.73;45.99;93220.59;5035501;28;20203;-74
2022/11/18 03:45:24;;;;;;;0.40;0.40;;;16.90;61.00;;;16.73;45.75;93215.28;5018788;28;20698;-74
2022/11/18 03:48:11;;;;;;;0.40;0.40;;;16.90;61.00;;;16.72;45.85;93217.16;5002701;28;20196;-73
2022/11/18 03:51:10;;;;;;;0.40;0.40;;;16.90;61.90;;;16.70;45.55;93211.34;5035095;28;20184;-74
2022/11/18 03:53:44;;;;;;;0.40;0.40;;;16.90;61.00;;;16.72;45.67;93209.22;5033027;28;20224;-74
2022/11/18 03:56:18;;;;;;;0.40;0.40;;;16.90;61.00;;;16.71;45.72;93206.81;5035067;28;20173;-74
2022/11/18 03:58:58;;;;;;;0.57;0.57;;;16.90;61.00;;;16.64;45.71;93207.91;5033751;28;20255;-74
2022/11/18 04:01:47;;;;;;;0.40;0.40;;;16.90;61.00;;;16.70;45.65;93221.94;5035987;28;20259;-74
2022/11/18 04:04:16;;;;;;;0.40;0.40;;;16.90;61.00;;;16.67;45.59;93227.75;5018753;28;20196;-74
2022/11/18 04:07:07;;;;;;;0.40;0.40;;;16.90;61.00;;;16.68;46.05;93228.56;5034869;28;20223;-74
2022/11/18 04:09:46;;;;;;;0.43;0.43;;;16.90;61.00;;;16.71;45.62;93228.81;5034813;28;20172;-74
2022/11/18 04:12:17;;;;;;;0.50;0.50;;;16.90;61.00;;;16.70;45.55;93229.88;5034524;28;20188;-74
2022/11/18 04:14:48;;;;;;;0.40;0.40;;;16.90;61.00;;;16.72;45.69;93243.63;5034873;28;20209;-74
2022/11/18 04:17:19;;;;;;;0.40;0.40;;;16.90;61.00;;;16.70;45.63;93243.09;5034792;28;20207;-74
2022/11/18 04:19:47;;;;;;;0.30;0.30;;;16.90;61.00;;;16.72;45.47;93227.75;5035474;28;20186;-74
2022/11/18 04:22:15;;;;;;;0.40;0.40;;;16.90;61.00;;;16.73;45.61;93231.19;5018029;28;20673;-74
2022/11/18 04:24:42;;;;;;;0.40;0.40;;;16.90;61.00;;;16.72;45.73;93227.75;5034461;28;20202;-74
2022/11/18 04:27:10;;;;;;;0.40;0.40;;;16.90;61.00;;;16.74;45.96;93235.41;5034490;28;20222;-74
2022/11/18 04:29:37;;;;;;;0.50;0.50;;;16.90;61.00;;;16.73;45.84;93231.19;5034382;28;20192;-74
2022/11/18 04:32:04;;;;;;;0.52;0.52;;;16.90;61.00;;;16.74;45.55;93230.13;5034359;28;20184;-74
2022/11/18 04:34:31;;;;;;;0.45;0.45;;;16.90;61.00;;;16.73;45.51;93229.31;5017867;28;20227;-74
2022/11/18 04:36:58;;;;;;;0.40;0.40;;;16.90;61.00;;;16.74;45.54;93228.25;5034203;28;20232;-74
2022/11/18 04:39:25;;;;;;;0.50;0.50;;;16.90;61.00;;;16.70;46.00;93215.81;5034131;28;20202;-73
2022/11/18 04:41:55;;;;;;;0.50;0.50;;;16.90;61.00;;;16.73;45.95;93225.88;5034327;28;20188;-73
2022/11/18 04:44:30;;;;;;;0.30;0.30;;;16.90;61.00;;;16.73;46.10;93231.97;5034295;28;20200;-74
2022/11/18 04:47:00;;;;;;;0.50;0.50;;;16.90;61.00;;;16.73;45.88;93224.03;5034105;28;20234;-74
2022/11/18 04:49:28;;;;;;;0.50;0.50;;;16.90;61.00;;;16.71;45.59;93220.88;5034195;28;20635;-74
2022/11/18 04:51:56;;;;;;;0.30;0.30;;;16.90;61.00;;;16.74;46.00;93217.66;5017578;28;20208;-74
2022/11/18 04:54:25;;;;;;;0.47;0.47;;;16.90;61.00;;;16.75;45.93;93210.53;5033939;28;20216;-74
2022/11/18 04:56:54;;;;;;;0.43;0.43;;;16.90;61.00;;;16.75;45.72;93207.88;5034310;28;20204;-74
2022/11/18 04:59:27;;;;;;;0.38;0.38;;;16.90;61.00;;;16.75;45.55;93202.59;5033997;28;20326;-73
2022/11/18 05:01:55;;;;;;;0.40;0.40;;;16.90;61.00;;;16.75;45.44;93202.59;5034197;28;20181;-74
2022/11/18 05:04:29;;;;;;;0.40;0.40;;;16.90;61.00;;;16.74;46.02;93193.06;5017495;28;20250;-74
2022/11/18 05:06:58;;;;;;;0.40;0.40;;;16.90;61.00;;;16.77;46.04;93197.78;5017659;28;20298;-73
2022/11/18 05:09:26;;;;;;;0.50;0.50;;;16.90;61.00;;;16.75;46.12;93189.34;5034316;28;20204;-73
2022/11/18 05:15:02;;;;;;;0.40;0.40;;;16.90;61.00;;;16.74;46.08;93180.59;4967021;28;20275;-73
2022/11/18 05:17:29;;;;;;;0.40;0.40;;;16.90;61.00;;;16.73;45.84;93178.22;5027217;28;20314;-74
2022/11/18 05:19:58;;;;;;;0.40;0.40;;;16.90;61.00;;;16.76;46.14;93175.03;5038122;28;20198;-74
2022/11/18 05:22:25;;;;;;;0.50;0.50;;;17.00;61.10;;;16.72;45.69;93166.06;5038124;28;20507;-74
2022/11/18 05:24:52;;;;;;;0.60;0.60;;;16.90;61.00;;;16.77;45.97;93172.13;5037918;28;20261;-74
2022/11/18 05:27:19;;;;;;;0.50;0.50;;;16.90;61.00;;;16.69;45.84;93162.09;5021430;28;20200;-74
2022/11/18 05:29:46;;;;;;;0.50;0.50;;;17.00;61.10;;;16.78;45.95;93178.19;5037711;28;20199;-73
2022/11/18 05:32:13;;;;;;;0.40;0.40;;;16.90;61.10;;;16.75;46.22;93176.13;5037906;28;20207;-74
2022/11/18 05:34:41;;;;;;;0.52;0.52;;;17.00;61.30;;;16.77;45.83;93180.06;5037615;28;20601;-74
2022/11/18 05:37:09;;;;;;;0.50;0.50;;;17.00;61.10;;;16.79;45.81;93174.50;5037561;28;20192;-74
2022/11/18 05:39:36;;;;;;;0.40;0.40;;;16.90;61.10;;;16.78;45.79;93172.91;5037461;28;20192;-74
2022/11/18 05:44:50;;;;;;;0.50;0.50;;;17.00;61.10;;;16.77;46.09;93172.13;5038324;28;20196;-74
2022/11/18 05:47:24;;;;;;;0.40;0.40;;;17.00;61.10;;;16.78;45.56;93175.56;5021829;28;20203;-74
2022/11/18 05:49:50;;;;;;;0.40;0.40;;;17.00;61.10;;;16.79;45.51;93182.44;5037212;28;20203;-74
2022/11/18 05:52:17;;;;;;;0.40;0.40;;;17.00;61.10;;;16.79;45.73;93182.44;5037378;28;20621;-74
2022/11/18 05:54:49;;;;;;;0.60;0.60;;;17.00;61.10;;;16.77;45.98;93182.72;5038374;28;20216;-74
2022/11/18 05:57:16;;;;;;;0.50;0.50;;;17.00;61.10;;;16.80;46.04;93189.31;5020871;28;20192;-73
2022/11/18 05:59:44;;;;;;;0.50;0.50;;;17.00;61.10;;;16.79;45.86;93180.56;5037789;28;20231;-73
2022/11/18 06:02:20;;;;;;;0.50;0.50;;;17.00;61.10;;;16.80;45.83;93190.09;5037377;28;20194;-73
2022/11/18 06:04:57;;;;;;;0.40;0.40;;;17.00;61.30;;;16.80;45.82;93192.75;5020036;28;20195;-74
2022/11/18 06:07:34;;;;;;;0.40;0.40;;;17.00;61.20;;;16.80;45.77;93197.25;5037165;28;20176;-74
2022/11/18 06:10:03;;;;;;;0.50;0.50;;;17.00;61.10;;;16.81;45.75;93198.84;5020879;28;20184;-73
2022/11/18 06:12:38;;;;;;;0.60;0.60;;;17.10;61.20;;;16.81;46.38;93206.78;5037267;28;20184;-76
2022/11/18 06:15:18;;;;;;;0.50;0.50;;;17.00;61.20;;;16.81;45.86;93212.88;5021151;28;20603;-75
2022/11/18 06:18:11;;;;;;;0.50;0.50;;;17.00;61.10;;;16.77;46.08;93216.31;5037241;28;20192;-75
2022/11/18 06:20:40;;;;;;;0.43;0.43;;;17.00;61.10;;;16.81;45.95;93214.72;5018123;28;20204;-74
2022/11/18 06:23:07;;;;;;;0.50;0.50;;;17.00;61.10;;;16.83;46.17;93217.88;5019827;28;20203;-74
2022/11/18 06:25:37;;;;;;;0.50;0.50;;;17.10;61.20;;;16.82;46.01;93211.03;5036777;28;20204;-74
2022/11/18 06:28:05;;;;;;;0.50;0.50;;;17.00;61.30;;;16.84;45.95;93214.16;5034343;28;20527;-74
2022/11/18 06:30:32;;;;;;;0.43;0.43;;;17.00;61.10;;;16.83;45.81;93206.50;5046706;28;20512;-74
2022/11/18 06:32:59;;;;;;;0.50;0.50;;;17.00;61.10;;;16.80;46.10;93211.28;5037252;28;20269;-74
2022/11/18 06:35:26;;;;;;;0.60;0.60;;;17.00;61.10;;;16.83;45.95;93217.09;5037173;28;20207;-73
2022/11/18 06:37:53;;;;;;;0.40;0.40;;;17.00;61.20;;;16.84;46.10;93222.13;5052963;28;20226;-74
2022/11/18 06:40:20;;;;;;;0.60;0.60;;;17.00;61.10;;;16.84;46.24;93226.63;5035497;28;20192;-74
2022/11/18 06:45:33;;;;;;;0.50;0.50;;;17.00;62.00;;;16.80;45.61;93232.47;5037410;28;20179;-75
2022/11/18 06:48:00;;;;;;;0.40;0.40;;;17.00;61.10;;;16.81;45.55;93233.28;5037859;28;20200;-74
2022/11/18 06:50:27;;;;;;;0.47;0.47;;;17.00;61.10;;;16.79;45.81;93238.81;5036548;28;20202;-74
2022/11/18 06:52:55;;;;;;;0.55;0.55;;;17.00;61.10;;;16.81;45.88;93243.84;5020103;28;20196;-74
2022/11/18 06:55:22;;;;;;;0.50;0.50;;;16.90;61.00;;;16.80;45.63;93234.31;5036335;28;20216;-75
2022/11/18 06:57:50;;;;;;;0.50;0.50;;;17.00;61.10;;;16.79;45.61;93235.38;5036968;28;20306;-75
2022/11/18 07:00:18;;;;;;;0.60;0.60;;;17.00;61.10;;;16.78;45.65;93241.75;5019796;28;20299;-76
2022/11/18 07:02:45;;;;;;;0.55;0.55;;;16.90;61.00;;;16.79;45.71;93238.81;5037154;28;20251;-75
2022/11/18 07:05:12;;;;;;;0.55;0.55;;;16.90;61.00;;;16.78;45.95;93239.09;5035882;28;20283;-75
2022/11/18 07:07:40;;;;;;;0.40;0.40;;;16.90;61.00;;;16.76;45.89;93234.06;5036619;28;20322;-75
2022/11/18 07:10:08;;;;;;;0.60;0.60;;;16.90;61.00;;;16.77;45.55;93240.16;5036198;28;20262;-73
2022/11/18 07:12:35;;;;;;;0.50;0.50;;;16.90;61.00;;;16.78;45.47;93236.44;5019814;28;20196;-75
2022/11/18 07:15:03;;;;;;;0.50;0.50;;;16.90;61.00;;;16.77;45.69;93235.66;5052387;28;20791;-75
2022/11/18 07:17:30;;;;;;;0.40;0.40;;;16.90;61.00;;;16.76;45.90;93234.06;5036642;28;20200;-74
2022/11/18 07:19:58;;;;;;;0.50;0.50;;;16.90;61.90;;;16.77;46.00;93232.22;5035748;28;20526;-74
2022/11/18 07:22:25;;;;;;;0.40;0.40;;;16.90;61.00;;;16.73;45.75;93237.25;5019840;28;20618;-75
2022/11/18 07:24:52;;;;;;;0.50;0.50;;;16.90;61.00;;;16.74;45.36;93241.50;5052196;28;20219;-74
2022/11/18 07:27:19;;;;;;;0.60;0.60;;;16.90;61.00;;;16.73;46.07;93233.81;5035721;28;20246;-75
2022/11/18 07:29:46;;;;;;;0.60;0.60;;;16.90;61.00;;;16.74;45.83;93236.19;5036631;28;20585;-74
2022/11/18 07:32:13;;;;;;;0.50;0.50;;;16.90;61.00;;;16.72;45.79;93229.59;5036598;28;20206;-75
2022/11/18 07:34:40;;;;;;;0.47;0.47;;;16.80;61.00;;;16.72;45.50;93230.41;5034957;28;20225;-74
2022/11/18 07:37:07;;;;;;;0.50;0.50;;;16.90;61.00;;;16.72;45.80;93230.41;5035084;28;20207;-74
2022/11/18 07:39:34;;;;;;;0.40;0.40;;;16.80;61.00;;;16.73;46.15;93225.88;5035034;28;20189;-74
2022/11/18 07:42:01;;;;;;;0.50;0.50;;;16.80;61.00;;;16.72;45.81;93229.59;5018885;28;20204;-75
2022/11/18 07:44:28;;;;;;;0.60;0.60;;;16.80;61.00;;;16.71;45.99;93222.72;5051563;28;20227;-75
2022/11/18 07:46:55;;;;;;;0.45;0.45;;;16.80;61.00;;;16.66;45.80;93218.22;5034387;28;20196;-75
2022/11/18 07:49:22;;;;;;;0.43;0.43;;;16.90;61.10;;;16.70;45.75;93226.41;5036294;28;20230;-75
2022/11/18 07:51:49;;;;;;;0.40;0.40;;;16.80;61.00;;;16.67;45.97;93219.03;5035260;28;20203;-75
2022/11/18 07:54:17;;;;;;;0.40;0.40;;;16.80;61.00;;;16.70;45.81;93221.13;5019386;28;20250;-75
2022/11/18 07:56:44;;;;;;;0.50;0.50;;;16.80;61.00;;;16.71;45.49;93230.66;5035005;28;20533;-75
2022/11/18 07:59:11;;;;;;;0.40;0.40;;;16.80;61.00;;;16.69;45.34;93225.63;5035835;28;20319;-74
2022/11/18 08:01:38;;;;;;;0.40;0.40;;;16.80;61.90;;;16.69;45.50;93224.84;5014770;28;20220;-74
2022/11/18 08:04:10;;;;;;;0.40;0.40;;;16.80;61.00;;;16.67;45.61;93222.47;5031533;28;20181;-75
2022/11/18 08:06:37;;;;;;;0.50;0.50;;;16.80;61.00;;;16.68;45.40;93234.63;4999191;28;20196;-75
2022/11/18 08:09:07;;;;;;;0.50;0.50;;;16.80;61.00;;;16.65;46.01;93229.91;5015011;28;20239;-74
2022/11/18 08:11:35;;;;;;;0.40;0.40;;;16.80;61.00;;;16.69;45.24;93235.44;4999002;28;20228;-74
2022/11/18 08:14:03;;;;;;;0.50;0.50;;;16.80;61.00;;;16.68;45.34;93225.91;5014959;28;20196;-75
2022/11/18 08:16:30;;;;;;;0.47;0.47;;;16.80;61.00;;;16.67;45.99;93224.31;4998680;28;20220;-75
2022/11/18 08:18:59;;;;;;;0.40;0.40;;;16.80;61.00;;;16.59;45.87;93210.59;5031308;28;20193;-74
2022/11/18 08:21:26;;;;;;;0.40;0.40;;;16.80;61.00;;;16.67;45.63;93225.09;4999138;28;20207;-75
2022/11/18 08:23:56;;;;;;;0.30;0.30;;;16.80;61.00;;;16.67;46.02;93226.97;4998841;28;20193;-75
2022/11/18 08:26:25;;;;;;;0.40;0.40;;;16.80;61.00;;;16.65;45.91;93228.03;5015754;28;20181;-75
2022/11/18 08:28:53;;;;;;;0.40;0.40;;;16.80;60.90;;;16.64;45.47;93215.84;4983476;28;20193;-75
2022/11/18 08:31:26;;;;;;;0.50;0.50;;;16.80;61.00;;;16.66;45.78;93226.16;5015269;28;20201;-75
2022/11/18 08:34:01;;;;;;;0.40;0.40;;;16.80;61.00;;;16.65;45.53;93230.69;4998577;28;20173;-75
2022/11/18 08:36:32;;;;;;;0.50;0.50;;;16.80;60.90;;;16.63;45.29;93224.06;5014939;28;20177;-74
2022/11/18 08:39:02;;;;;;;0.60;0.60;;;16.80;60.90;;;16.61;45.51;93220.91;5015359;28;20188;-76
2022/11/18 08:41:35;;;;;;;0.60;0.60;;;16.80;61.00;;;16.62;45.72;93220.66;4998807;28;20597;-75
2022/11/18 08:44:04;;;;;;;0.50;0.50;;;16.80;61.00;;;16.63;45.50;93224.84;4998407;28;20196;-75
2022/11/18 08:46:31;;;;;;;0.40;0.40;;;16.80;61.00;;;16.66;45.46;93236.75;4998292;28;20659;-74
2022/11/18 08:48:58;;;;;;;0.45;0.45;;;16.80;61.00;;;16.65;45.87;93235.19;5015545;28;20216;-75
2022/11/18 08:51:26;;;;;;;0.60;0.60;;;16.80;61.00;;;16.65;45.53;93235.19;4982707;28;20620;-76
2022/11/18 08:53:54;;;;;;;0.43;0.43;;;16.80;61.00;;;16.64;45.37;93234.38;5015225;28;20501;-75
2022/11/18 08:56:23;;;;;;;0.50;0.50;;;16.80;60.90;;;16.63;45.73;93232.00;5014627;28;20197;-75
2022/11/18 08:58:51;;;;;;;0.40;0.40;;;16.80;61.00;;;16.64;45.60;93221.16;5014216;28;20649;-75
2022/11/18 09:01:18;;;;;;;0.40;0.40;;;16.80;61.00;;;16.64;45.49;93231.72;5014654;28;20637;-75
2022/11/18 09:03:46;;;;;;;0.50;0.50;;;16.80;61.00;;;16.59;45.86;93221.19;5015127;28;20631;-75
2022/11/18 09:06:19;;;;;;;0.40;0.40;;;16.80;61.00;;;16.60;45.67;93220.13;4998539;28;20209;-75
2022/11/18 09:08:49;;;;;;;0.40;0.40;;;16.80;60.90;;;16.64;45.58;93231.72;5014122;28;20189;-74
2022/11/18 09:11:23;;;;;;;0.40;0.40;;;16.80;61.00;;;16.63;45.80;93224.84;5013840;28;20243;-74
2022/11/18 09:13:56;;;;;;;0.50;0.50;;;16.80;61.00;;;16.65;45.38;93235.97;5014501;28;20188;-74
2022/11/18 09:16:43;;;;;;;0.50;0.50;;;16.80;60.90;;;16.64;45.51;93231.72;5000293;28;20201;-74
2022/11/18 09:19:10;;;;;;;0.50;0.50;;;16.80;61.90;;;16.60;45.78;93225.41;5014407;28;20189;-75
2022/11/18 09:21:57;;;;;;;0.57;0.57;;;16.80;61.00;;;16.62;45.86;93222.50;5013779;28;20218;-74
2022/11/18 09:24:25;;;;;;;0.40;0.40;;;16.80;61.00;;;16.63;45.71;93232.78;4998671;28;20490;-75
2022/11/18 09:26:52;;;;;;;0.40;0.40;;;16.80;61.00;;;16.64;45.93;93229.09;5030557;28;20385;-75
2022/11/18 09:29:24;;;;;;;0.40;0.40;;;16.80;61.00;;;16.64;45.83;93230.97;5014395;28;20582;-75
2022/11/18 09:31:53;;;;;;;0.45;0.45;;;16.80;61.00;;;16.64;45.76;93241.53;5013821;28;20204;-75
2022/11/18 09:34:21;;;;;;;0.50;0.50;;;16.80;61.00;;;16.63;45.89;93238.09;5013817;28;20185;-75
2022/11/18 09:36:49;;;;;;;0.43;0.43;;;16.80;61.00;;;16.63;45.54;93226.72;4997832;28;20228;-75
2022/11/18 09:39:16;;;;;;;0.50;0.50;;;16.80;61.00;;;16.64;45.86;93233.59;5014078;28;20191;-75
2022/11/18 09:41:59;;;;;;;0.45;0.45;;;16.80;61.00;;;16.62;45.51;93230.44;5013903;28;20199;-75
2022/11/18 09:44:30;;;;;;;0.50;0.50;;;16.80;61.00;;;16.64;45.91;93223.78;5015548;28;20207;-75
2022/11/18 09:47:18;;;;;;;0.40;0.40;;;16.80;61.00;;;16.57;45.66;93212.72;4997706;28;20186;-75
2022/11/18 09:49:46;;;;;;;0.40;0.40;;;16.80;61.00;;;16.62;45.88;93222.50;5030419;28;20181;-75
2022/11/18 09:52:20;;;;;;;0.40;0.40;;;16.80;61.00;;;16.60;45.83;93209.53;5014155;28;20188;-75
2022/11/18 09:54:47;;;;;;;0.60;0.60;;;16.80;61.00;;;16.62;45.48;93215.34;5030558;28;20201;-77
2022/11/18 09:57:19;;;;;;;0.50;0.50;;;16.80;61.00;;;16.63;45.32;93216.91;5016917;28;20661;-76
2022/11/18 09:59:46;;;;;;;0.50;0.50;;;16.80;61.00;;;16.63;45.32;93214.25;5017782;28;20540;-74
2022/11/18 10:02:28;;;;;;;0.40;0.40;;;16.70;60.90;;;16.63;45.98;93219.56;5001504;28;20193;-75
2022/11/18 10:05:21;;;;;;;0.50;0.50;;;16.80;61.00;;;16.61;45.35;93212.97;5018265;28;20184;-75
2022/11/18 10:08:00;;;;;;;0.50;0.50;;;16.70;60.90;;;16.61;45.74;93211.13;5017407;28;20177;-75
2022/11/18 10:10:44;;;;;;;0.50;0.50;;;16.70;60.90;;;16.61;45.57;93213.75;5018068;28;20208;-75
2022/11/18 10:13:53;;;;;;;0.40;0.40;;;16.80;61.00;;;16.57;45.76;93217.22;5034458;28;20593;-76
2022/11/18 10:17:18;;;;;;;0.43;0.43;;;16.70;60.90;;;16.58;45.55;93214.28;5017291;28;20204;-75
2022/11/18 10:20:09;;;;;;;0.50;0.50;;;16.70;60.90;;;16.57;45.52;93219.88;4990992;28;20220;-75
2022/11/18 10:23:24;;;;;;;0.50;0.50;;;16.70;60.90;;;16.55;45.57;93219.34;5018111;28;20201;-75
2022/11/18 10:25:55;;;;;;;0.60;0.60;;;16.70;60.90;;;16.53;45.51;93213.50;5002213;28;20189;-75
2022/11/18 10:28:28;;;;;;;0.50;0.50;;;16.80;61.00;;;16.57;45.66;93223.28;5017553;28;20189;-75
2022/11/18 10:31:11;;;;;;;0.40;0.40;;;16.70;60.90;;;16.56;45.73;93219.06;5017103;28;20215;-75
2022/11/18 10:33:39;;;;;;;0.40;0.40;;;16.70;60.90;;;16.58;46.00;93216.16;5000938;28;20201;-79
2022/11/18 10:36:26;;;;;;;0.43;0.43;;;16.70;60.90;;;16.58;45.39;93229.41;5017966;28;20221;-75
2022/11/18 10:39:15;;;;;;;0.40;0.40;;;16.70;60.90;;;16.55;45.54;93225.44;5000710;28;20220;-75
2022/11/18 10:41:51;;;;;;;0.50;0.50;;;16.70;60.90;;;16.54;46.01;93223.03;5000637;28;20284;-75
2022/11/18 10:44:39;;;;;;;0.60;0.60;;;16.70;60.90;;;16.55;45.58;93228.09;5000788;28;20201;-74
2022/11/18 10:47:25;;;;;;;0.50;0.50;;;16.70;60.90;;;16.57;45.65;93222.50;5033081;28;20182;-74
2022/11/18 10:49:57;;;;;;;0.50;0.50;;;16.70;60.90;;;16.55;45.63;93217.50;5017312;28;20197;-75
2022/11/18 10:52:26;;;;;;;0.40;0.40;;;16.70;60.90;;;16.58;45.32;93227.53;5017286;28;20181;-75
2022/11/18 10:55:13;;;;;;;0.40;0.40;;;16.70;60.90;;;16.58;45.44;93219.59;5017038;28;20274;-75
2022/11/18 10:57:42;;;;;;;0.50;0.50;;;16.70;60.90;;;16.58;45.78;93214.28;5016629;28;20618;-75
2022/11/18 11:00:35;;;;;;;0.40;0.40;;;16.70;60.90;;;16.59;45.71;93209.81;5000046;28;20232;-74
2022/11/18 11:03:24;;;;;;;0.50;0.50;;;16.70;60.90;;;16.58;45.57;93216.16;5032706;28;20331;-75